Mc Indoe Falls, Vermont
Current Conditions -  °F | °C
As of 12:51 AM on Wednesday 22 Oct 2014 (Local Time) from KMPV Reporting Station
Overcast Overcast  
Wind Chill:   Ceiling: 700
Heat Index:   Visibility: 9mi
Dew Point:   Wind: 3mph
Humidity: 100%   Direction: 340°NNW
Pressure: 30.12"   Gusts: NA
Location:  44.2588°N, 72.0585°W
Report Text: KMPV 220451Z AUTO 34003KT 9SM BKN007 OVC015 07/07 A3012 RMK AO2 SLP206 T00720072 400780039
Loading
Personal Weather Stations






























Interactive Weather Map
Tropical Storm Tracking
New forecast layout! Learn more

10-Day Weather Forecast

Advertisements
Track Severe Weather on mobile